sensor_id;sensor_type;location;lat;lon;timestamp;P1;durP1;ratioP1;P2;durP2;ratioP2
25509;SDS011;13413;52.336;21.200;2022-08-18T00:02:52;26.30;;;23.50;;
25509;SDS011;13413;52.336;21.200;2022-08-18T00:06:12;24.30;;;21.80;;
25509;SDS011;13413;52.336;21.200;2022-08-18T00:09:33;27.10;;;24.30;;
25509;SDS011;13413;52.336;21.200;2022-08-18T00:12:55;28.70;;;24.50;;
25509;SDS011;13413;52.336;21.200;2022-08-18T00:16:16;29.20;;;24.80;;
25509;SDS011;13413;52.336;21.200;2022-08-18T00:19:35;31.20;;;25.90;;
25509;SDS011;13413;52.336;21.200;2022-08-18T00:22:54;27.80;;;24.60;;
25509;SDS011;13413;52.336;21.200;2022-08-18T00:26:14;26.80;;;24.00;;
25509;SDS011;13413;52.336;21.200;2022-08-18T00:29:34;26.90;;;24.10;;
25509;SDS011;13413;52.336;21.200;2022-08-18T00:32:54;27.40;;;24.50;;
25509;SDS011;13413;52.336;21.200;2022-08-18T00:36:16;29.10;;;24.50;;
25509;SDS011;13413;52.336;21.200;2022-08-18T00:39:35;27.80;;;23.70;;
25509;SDS011;13413;52.336;21.200;2022-08-18T00:43:00;26.40;;;23.10;;
25509;SDS011;13413;52.336;21.200;2022-08-18T00:49:41;28.30;;;23.50;;
25509;SDS011;13413;52.336;21.200;2022-08-18T00:53:02;26.60;;;24.00;;
25509;SDS011;13413;52.336;21.200;2022-08-18T00:59:49;25.30;;;22.30;;
25509;SDS011;13413;52.336;21.200;2022-08-18T01:06:36;26.50;;;23.50;;
25509;SDS011;13413;52.336;21.200;2022-08-18T01:09:58;26.90;;;24.10;;
25509;SDS011;13413;52.336;21.200;2022-08-18T01:13:17;26.20;;;23.50;;
25509;SDS011;13413;52.336;21.200;2022-08-18T01:16:37;28.50;;;23.30;;
25509;SDS011;13413;52.336;21.200;2022-08-18T01:19:57;27.10;;;23.70;;
25509;SDS011;13413;52.336;21.200;2022-08-18T01:23:18;28.30;;;22.60;;
25509;SDS011;13413;52.336;21.200;2022-08-18T01:26:39;25.50;;;22.70;;
25509;SDS011;13413;52.336;21.200;2022-08-18T01:30:03;25.10;;;22.50;;
25509;SDS011;13413;52.336;21.200;2022-08-18T01:36:46;25.60;;;23.00;;
25509;SDS011;13413;52.336;21.200;2022-08-18T01:40:12;25.70;;;22.20;;
25509;SDS011;13413;52.336;21.200;2022-08-18T01:46:52;23.70;;;21.30;;
25509;SDS011;13413;52.336;21.200;2022-08-18T01:53:46;26.40;;;21.80;;
25509;SDS011;13413;52.336;21.200;2022-08-18T01:57:05;24.10;;;21.80;;
25509;SDS011;13413;52.336;21.200;2022-08-18T02:00:24;24.20;;;21.00;;
25509;SDS011;13413;52.336;21.200;2022-08-18T02:03:43;24.10;;;21.60;;
25509;SDS011;13413;52.336;21.200;2022-08-18T02:07:07;23.00;;;20.10;;
25509;SDS011;13413;52.336;21.200;2022-08-18T02:10:28;22.90;;;20.70;;
25509;SDS011;13413;52.336;21.200;2022-08-18T02:13:49;23.60;;;21.00;;
25509;SDS011;13413;52.336;21.200;2022-08-18T02:17:09;23.70;;;21.50;;
25509;SDS011;13413;52.336;21.200;2022-08-18T02:20:31;22.70;;;20.30;;
25509;SDS011;13413;52.336;21.200;2022-08-18T02:23:51;25.10;;;21.70;;
25509;SDS011;13413;52.336;21.200;2022-08-18T02:27:11;25.90;;;22.80;;
25509;SDS011;13413;52.336;21.200;2022-08-18T02:30:32;26.10;;;22.00;;
25509;SDS011;13413;52.336;21.200;2022-08-18T02:33:55;23.80;;;21.20;;
25509;SDS011;13413;52.336;21.200;2022-08-18T02:37:14;23.70;;;21.20;;
25509;SDS011;13413;52.336;21.200;2022-08-18T02:40:33;31.90;;;22.20;;
25509;SDS011;13413;52.336;21.200;2022-08-18T02:43:54;24.70;;;20.70;;
25509;SDS011;13413;52.336;21.200;2022-08-18T02:47:14;23.70;;;21.40;;
25509;SDS011;13413;52.336;21.200;2022-08-18T02:50:38;23.20;;;20.50;;
25509;SDS011;13413;52.336;21.200;2022-08-18T02:53:57;24.70;;;21.90;;
25509;SDS011;13413;52.336;21.200;2022-08-18T02:57:16;22.10;;;19.80;;
25509;SDS011;13413;52.336;21.200;2022-08-18T03:00:35;23.90;;;21.40;;
25509;SDS011;13413;52.336;21.200;2022-08-18T03:03:55;22.40;;;20.20;;
25509;SDS011;13413;52.336;21.200;2022-08-18T03:07:16;22.10;;;20.00;;
25509;SDS011;13413;52.336;21.200;2022-08-18T03:10:37;26.20;;;21.40;;
25509;SDS011;13413;52.336;21.200;2022-08-18T03:13:57;23.30;;;21.10;;
25509;SDS011;13413;52.336;21.200;2022-08-18T03:17:17;21.70;;;19.60;;
25509;SDS011;13413;52.336;21.200;2022-08-18T03:20:37;22.70;;;20.40;;
25509;SDS011;13413;52.336;21.200;2022-08-18T03:23:57;22.40;;;20.30;;
25509;SDS011;13413;52.336;21.200;2022-08-18T03:27:17;23.20;;;20.70;;
25509;SDS011;13413;52.336;21.200;2022-08-18T03:30:36;22.50;;;20.10;;
25509;SDS011;13413;52.336;21.200;2022-08-18T03:33:55;23.40;;;20.80;;
25509;SDS011;13413;52.336;21.200;2022-08-18T03:37:17;23.50;;;21.00;;
25509;SDS011;13413;52.336;21.200;2022-08-18T03:40:37;23.70;;;21.20;;
25509;SDS011;13413;52.336;21.200;2022-08-18T03:43:59;23.80;;;21.30;;
25509;SDS011;13413;52.336;21.200;2022-08-18T03:47:19;23.20;;;20.70;;
25509;SDS011;13413;52.336;21.200;2022-08-18T03:50:39;26.60;;;21.70;;
25509;SDS011;13413;52.336;21.200;2022-08-18T03:54:00;23.90;;;21.30;;
25509;SDS011;13413;52.336;21.200;2022-08-18T03:57:20;23.30;;;20.90;;
25509;SDS011;13413;52.336;21.200;2022-08-18T04:00:39;24.70;;;22.30;;
25509;SDS011;13413;52.336;21.200;2022-08-18T04:03:59;25.00;;;21.90;;
25509;SDS011;13413;52.336;21.200;2022-08-18T04:07:20;24.00;;;21.50;;
25509;SDS011;13413;52.336;21.200;2022-08-18T04:10:40;31.80;;;22.00;;
25509;SDS011;13413;52.336;21.200;2022-08-18T04:14:02;24.80;;;22.10;;
25509;SDS011;13413;52.336;21.200;2022-08-18T04:17:22;24.70;;;21.90;;
25509;SDS011;13413;52.336;21.200;2022-08-18T04:20:42;27.80;;;23.90;;
25509;SDS011;13413;52.336;21.200;2022-08-18T04:24:02;28.50;;;23.20;;
25509;SDS011;13413;52.336;21.200;2022-08-18T04:27:23;24.10;;;21.70;;
25509;SDS011;13413;52.336;21.200;2022-08-18T04:30:42;25.80;;;22.20;;
25509;SDS011;13413;52.336;21.200;2022-08-18T04:34:02;25.40;;;22.30;;
25509;SDS011;13413;52.336;21.200;2022-08-18T04:37:21;26.00;;;22.60;;
25509;SDS011;13413;52.336;21.200;2022-08-18T04:40:41;24.10;;;21.60;;
25509;SDS011;13413;52.336;21.200;2022-08-18T04:44:02;24.90;;;22.30;;
25509;SDS011;13413;52.336;21.200;2022-08-18T04:47:23;25.80;;;22.50;;
25509;SDS011;13413;52.336;21.200;2022-08-18T04:54:24;24.70;;;21.90;;
25509;SDS011;13413;52.336;21.200;2022-08-18T05:01:01;32.10;;;23.80;;
25509;SDS011;13413;52.336;21.200;2022-08-18T05:04:20;27.30;;;24.50;;
25509;SDS011;13413;52.336;21.200;2022-08-18T05:07:43;28.80;;;25.70;;
25509;SDS011;13413;52.336;21.200;2022-08-18T05:11:03;29.90;;;25.90;;
25509;SDS011;13413;52.336;21.200;2022-08-18T05:14:24;30.70;;;25.00;;
25509;SDS011;13413;52.336;21.200;2022-08-18T05:17:43;26.40;;;23.30;;
25509;SDS011;13413;52.336;21.200;2022-08-18T05:21:05;26.80;;;23.30;;
25509;SDS011;13413;52.336;21.200;2022-08-18T05:24:27;26.60;;;23.80;;
25509;SDS011;13413;52.336;21.200;2022-08-18T05:34:57;31.20;;;24.80;;
25509;SDS011;13413;52.336;21.200;2022-08-18T05:38:31;25.60;;;22.90;;
25509;SDS011;13413;52.336;21.200;2022-08-18T05:42:04;24.30;;;21.80;;
25509;SDS011;13413;52.336;21.200;2022-08-18T05:45:34;27.20;;;22.40;;
25509;SDS011;13413;52.336;21.200;2022-08-18T05:48:55;25.20;;;22.40;;
25509;SDS011;13413;52.336;21.200;2022-08-18T05:52:15;23.70;;;21.10;;
25509;SDS011;13413;52.336;21.200;2022-08-18T05:55:38;26.70;;;23.80;;
25509;SDS011;13413;52.336;21.200;2022-08-18T05:59:01;33.40;;;26.00;;
25509;SDS011;13413;52.336;21.200;2022-08-18T06:02:23;27.50;;;24.30;;
25509;SDS011;13413;52.336;21.200;2022-08-18T06:05:48;31.30;;;24.20;;
25509;SDS011;13413;52.336;21.200;2022-08-18T06:09:12;27.70;;;25.00;;
25509;SDS011;13413;52.336;21.200;2022-08-18T06:12:35;28.40;;;24.60;;
25509;SDS011;13413;52.336;21.200;2022-08-18T06:15:57;28.20;;;24.50;;
25509;SDS011;13413;52.336;21.200;2022-08-18T06:19:25;27.60;;;24.70;;
25509;SDS011;13413;52.336;21.200;2022-08-18T06:22:55;26.70;;;24.10;;
25509;SDS011;13413;52.336;21.200;2022-08-18T06:26:36;32.20;;;23.70;;
25509;SDS011;13413;52.336;21.200;2022-08-18T06:30:06;32.50;;;23.50;;
25509;SDS011;13413;52.336;21.200;2022-08-18T06:33:41;27.80;;;22.00;;
25509;SDS011;13413;52.336;21.200;2022-08-18T06:37:11;21.60;;;19.30;;
25509;SDS011;13413;52.336;21.200;2022-08-18T06:40:36;23.10;;;20.30;;
25509;SDS011;13413;52.336;21.200;2022-08-18T06:43:58;22.40;;;16.90;;
25509;SDS011;13413;52.336;21.200;2022-08-18T06:47:24;22.50;;;17.60;;
25509;SDS011;13413;52.336;21.200;2022-08-18T06:50:54;18.10;;;16.10;;
25509;SDS011;13413;52.336;21.200;2022-08-18T06:54:28;18.90;;;16.90;;
25509;SDS011;13413;52.336;21.200;2022-08-18T06:57:53;17.30;;;15.30;;
25509;SDS011;13413;52.336;21.200;2022-08-18T07:01:14;15.40;;;13.80;;
25509;SDS011;13413;52.336;21.200;2022-08-18T07:04:37;18.90;;;14.40;;
25509;SDS011;13413;52.336;21.200;2022-08-18T07:08:09;15.00;;;13.60;;
25509;SDS011;13413;52.336;21.200;2022-08-18T07:11:32;15.60;;;14.00;;
25509;SDS011;13413;52.336;21.200;2022-08-18T07:14:53;15.00;;;12.40;;
25509;SDS011;13413;52.336;21.200;2022-08-18T07:21:39;19.50;;;11.70;;
25509;SDS011;13413;52.336;21.200;2022-08-18T07:25:02;15.40;;;10.70;;
25509;SDS011;13413;52.336;21.200;2022-08-18T07:28:28;14.80;;;10.90;;
25509;SDS011;13413;52.336;21.200;2022-08-18T07:31:51;13.30;;;10.90;;
25509;SDS011;13413;52.336;21.200;2022-08-18T07:35:16;13.80;;;10.50;;
25509;SDS011;13413;52.336;21.200;2022-08-18T07:38:40;18.00;;;11.20;;
25509;SDS011;13413;52.336;21.200;2022-08-18T07:42:04;12.90;;;11.60;;
25509;SDS011;13413;52.336;21.200;2022-08-18T07:48:50;13.30;;;10.80;;
25509;SDS011;13413;52.336;21.200;2022-08-18T07:52:11;12.40;;;9.70;;
25509;SDS011;13413;52.336;21.200;2022-08-18T07:55:35;12.20;;;10.60;;
25509;SDS011;13413;52.336;21.200;2022-08-18T07:59:00;12.90;;;9.90;;
25509;SDS011;13413;52.336;21.200;2022-08-18T08:02:30;10.80;;;9.10;;
25509;SDS011;13413;52.336;21.200;2022-08-18T08:05:59;12.10;;;9.70;;
25509;SDS011;13413;52.336;21.200;2022-08-18T08:09:27;14.60;;;10.10;;
25509;SDS011;13413;52.336;21.200;2022-08-18T08:13:01;15.60;;;12.90;;
25509;SDS011;13413;52.336;21.200;2022-08-18T08:16:35;14.70;;;10.20;;
25509;SDS011;13413;52.336;21.200;2022-08-18T08:20:07;12.30;;;9.30;;
25509;SDS011;13413;52.336;21.200;2022-08-18T08:23:36;10.70;;;8.80;;
25509;SDS011;13413;52.336;21.200;2022-08-18T08:27:04;15.20;;;8.80;;
25509;SDS011;13413;52.336;21.200;2022-08-18T08:30:34;10.50;;;8.70;;
25509;SDS011;13413;52.336;21.200;2022-08-18T08:33:57;10.70;;;9.10;;
25509;SDS011;13413;52.336;21.200;2022-08-18T08:37:29;10.30;;;8.70;;
25509;SDS011;13413;52.336;21.200;2022-08-18T08:40:53;12.70;;;9.00;;
25509;SDS011;13413;52.336;21.200;2022-08-18T08:44:19;11.30;;;9.80;;
25509;SDS011;13413;52.336;21.200;2022-08-18T08:47:54;13.60;;;8.90;;
25509;SDS011;13413;52.336;21.200;2022-08-18T08:51:30;10.90;;;8.60;;
25509;SDS011;13413;52.336;21.200;2022-08-18T08:54:55;9.90;;;8.80;;
25509;SDS011;13413;52.336;21.200;2022-08-18T08:58:21;11.00;;;8.30;;
25509;SDS011;13413;52.336;21.200;2022-08-18T09:01:47;12.50;;;9.60;;
25509;SDS011;13413;52.336;21.200;2022-08-18T09:05:17;11.60;;;8.60;;
25509;SDS011;13413;52.336;21.200;2022-08-18T09:12:34;9.90;;;7.90;;
25509;SDS011;13413;52.336;21.200;2022-08-18T09:16:08;11.60;;;8.40;;
25509;SDS011;13413;52.336;21.200;2022-08-18T09:23:21;9.10;;;8.20;;
25509;SDS011;13413;52.336;21.200;2022-08-18T09:26:46;9.30;;;8.40;;
25509;SDS011;13413;52.336;21.200;2022-08-18T09:37:54;9.50;;;7.70;;
25509;SDS011;13413;52.336;21.200;2022-08-18T09:41:25;7.40;;;6.70;;
25509;SDS011;13413;52.336;21.200;2022-08-18T09:44:58;7.60;;;6.90;;
25509;SDS011;13413;52.336;21.200;2022-08-18T09:48:25;14.80;;;7.10;;
25509;SDS011;13413;52.336;21.200;2022-08-18T09:51:48;13.80;;;7.20;;
25509;SDS011;13413;52.336;21.200;2022-08-18T09:59:06;9.10;;;7.30;;
25509;SDS011;13413;52.336;21.200;2022-08-18T10:06:25;7.20;;;6.50;;
25509;SDS011;13413;52.336;21.200;2022-08-18T10:09:47;9.60;;;7.10;;
25509;SDS011;13413;52.336;21.200;2022-08-18T10:13:17;11.80;;;6.60;;
25509;SDS011;13413;52.336;21.200;2022-08-18T10:16:44;7.60;;;6.70;;
25509;SDS011;13413;52.336;21.200;2022-08-18T10:20:18;10.40;;;6.60;;
25509;SDS011;13413;52.336;21.200;2022-08-18T10:23:54;12.40;;;7.10;;
25509;SDS011;13413;52.336;21.200;2022-08-18T10:31:03;7.80;;;6.70;;
25509;SDS011;13413;52.336;21.200;2022-08-18T10:34:36;9.00;;;6.60;;
25509;SDS011;13413;52.336;21.200;2022-08-18T10:37:58;10.50;;;6.80;;
25509;SDS011;13413;52.336;21.200;2022-08-18T10:41:28;7.80;;;6.50;;
25509;SDS011;13413;52.336;21.200;2022-08-18T10:44:49;8.50;;;6.30;;
25509;SDS011;13413;52.336;21.200;2022-08-18T10:48:18;12.70;;;6.80;;
25509;SDS011;13413;52.336;21.200;2022-08-18T10:51:43;9.90;;;7.30;;
25509;SDS011;13413;52.336;21.200;2022-08-18T10:59:05;9.90;;;5.90;;
25509;SDS011;13413;52.336;21.200;2022-08-18T11:02:38;6.90;;;6.00;;
25509;SDS011;13413;52.336;21.200;2022-08-18T11:06:05;7.90;;;6.10;;
25509;SDS011;13413;52.336;21.200;2022-08-18T11:09:27;9.90;;;6.30;;
25509;SDS011;13413;52.336;21.200;2022-08-18T11:13:00;9.20;;;6.50;;
25509;SDS011;13413;52.336;21.200;2022-08-18T11:16:33;12.10;;;5.80;;
25509;SDS011;13413;52.336;21.200;2022-08-18T11:20:00;9.10;;;5.90;;
25509;SDS011;13413;52.336;21.200;2022-08-18T11:23:21;11.20;;;6.10;;
25509;SDS011;13413;52.336;21.200;2022-08-18T11:26:44;8.40;;;6.60;;
25509;SDS011;13413;52.336;21.200;2022-08-18T11:30:06;7.50;;;6.80;;
25509;SDS011;13413;52.336;21.200;2022-08-18T11:33:28;9.50;;;6.40;;
25509;SDS011;13413;52.336;21.200;2022-08-18T11:36:55;8.80;;;6.80;;
25509;SDS011;13413;52.336;21.200;2022-08-18T11:43:55;7.90;;;6.40;;
25509;SDS011;13413;52.336;21.200;2022-08-18T11:47:16;9.10;;;6.70;;
25509;SDS011;13413;52.336;21.200;2022-08-18T11:50:45;7.90;;;6.30;;
25509;SDS011;13413;52.336;21.200;2022-08-18T11:54:20;7.80;;;6.00;;
25509;SDS011;13413;52.336;21.200;2022-08-18T11:57:52;7.80;;;6.60;;
25509;SDS011;13413;52.336;21.200;2022-08-18T12:01:33;9.60;;;6.80;;
25509;SDS011;13413;52.336;21.200;2022-08-18T12:08:21;13.50;;;6.30;;
25509;SDS011;13413;52.336;21.200;2022-08-18T12:11:50;7.10;;;6.30;;
25509;SDS011;13413;52.336;21.200;2022-08-18T12:15:25;8.50;;;6.70;;
25509;SDS011;13413;52.336;21.200;2022-08-18T12:18:47;7.00;;;5.70;;
25509;SDS011;13413;52.336;21.200;2022-08-18T12:22:12;9.90;;;6.20;;
25509;SDS011;13413;52.336;21.200;2022-08-18T12:25:34;9.50;;;6.80;;
25509;SDS011;13413;52.336;21.200;2022-08-18T12:28:54;7.20;;;6.50;;
25509;SDS011;13413;52.336;21.200;2022-08-18T12:32:14;7.60;;;6.70;;
25509;SDS011;13413;52.336;21.200;2022-08-18T12:35:33;8.00;;;6.20;;
25509;SDS011;13413;52.336;21.200;2022-08-18T12:38:52;11.20;;;6.00;;
25509;SDS011;13413;52.336;21.200;2022-08-18T12:42:13;8.70;;;6.40;;
25509;SDS011;13413;52.336;21.200;2022-08-18T12:45:36;9.50;;;6.60;;
25509;SDS011;13413;52.336;21.200;2022-08-18T12:48:56;8.10;;;6.20;;
25509;SDS011;13413;52.336;21.200;2022-08-18T12:52:18;9.70;;;6.20;;
25509;SDS011;13413;52.336;21.200;2022-08-18T12:55:39;9.40;;;7.20;;
25509;SDS011;13413;52.336;21.200;2022-08-18T12:58:59;7.70;;;6.00;;
25509;SDS011;13413;52.336;21.200;2022-08-18T13:02:20;8.70;;;6.40;;
25509;SDS011;13413;52.336;21.200;2022-08-18T13:05:39;7.90;;;6.40;;
25509;SDS011;13413;52.336;21.200;2022-08-18T13:09:00;8.80;;;6.20;;
25509;SDS011;13413;52.336;21.200;2022-08-18T13:12:20;9.10;;;6.20;;
25509;SDS011;13413;52.336;21.200;2022-08-18T13:15:41;11.20;;;6.00;;
25509;SDS011;13413;52.336;21.200;2022-08-18T13:19:01;6.30;;;5.70;;
25509;SDS011;13413;52.336;21.200;2022-08-18T13:22:21;8.40;;;6.80;;
25509;SDS011;13413;52.336;21.200;2022-08-18T13:25:41;8.10;;;6.20;;
25509;SDS011;13413;52.336;21.200;2022-08-18T13:29:01;10.10;;;6.50;;
25509;SDS011;13413;52.336;21.200;2022-08-18T13:32:23;7.40;;;6.60;;
25509;SDS011;13413;52.336;21.200;2022-08-18T13:35:43;7.20;;;6.20;;
25509;SDS011;13413;52.336;21.200;2022-08-18T13:39:05;9.50;;;6.90;;
25509;SDS011;13413;52.336;21.200;2022-08-18T13:42:24;11.60;;;6.70;;
25509;SDS011;13413;52.336;21.200;2022-08-18T13:45:45;8.00;;;6.00;;
25509;SDS011;13413;52.336;21.200;2022-08-18T13:49:05;9.70;;;6.40;;
25509;SDS011;13413;52.336;21.200;2022-08-18T13:52:25;6.40;;;5.70;;
25509;SDS011;13413;52.336;21.200;2022-08-18T13:55:46;6.20;;;5.60;;
25509;SDS011;13413;52.336;21.200;2022-08-18T13:59:07;11.90;;;6.90;;
25509;SDS011;13413;52.336;21.200;2022-08-18T14:02:26;8.30;;;6.60;;
25509;SDS011;13413;52.336;21.200;2022-08-18T14:05:46;9.40;;;6.70;;
25509;SDS011;13413;52.336;21.200;2022-08-18T14:09:05;8.90;;;6.80;;
25509;SDS011;13413;52.336;21.200;2022-08-18T14:12:26;8.60;;;6.20;;
25509;SDS011;13413;52.336;21.200;2022-08-18T14:15:47;10.80;;;6.30;;
25509;SDS011;13413;52.336;21.200;2022-08-18T14:19:07;8.10;;;6.20;;
25509;SDS011;13413;52.336;21.200;2022-08-18T14:22:27;10.00;;;6.60;;
25509;SDS011;13413;52.336;21.200;2022-08-18T14:25:47;9.40;;;6.30;;
25509;SDS011;13413;52.336;21.200;2022-08-18T14:29:08;7.70;;;6.20;;
25509;SDS011;13413;52.336;21.200;2022-08-18T14:32:28;8.30;;;6.60;;
25509;SDS011;13413;52.336;21.200;2022-08-18T14:35:48;10.10;;;6.70;;
25509;SDS011;13413;52.336;21.200;2022-08-18T14:39:07;16.20;;;6.40;;
25509;SDS011;13413;52.336;21.200;2022-08-18T14:42:27;8.50;;;6.50;;
25509;SDS011;13413;52.336;21.200;2022-08-18T14:45:47;8.00;;;6.50;;
25509;SDS011;13413;52.336;21.200;2022-08-18T14:49:08;9.30;;;6.40;;
25509;SDS011;13413;52.336;21.200;2022-08-18T14:52:28;9.70;;;6.70;;
25509;SDS011;13413;52.336;21.200;2022-08-18T14:55:47;8.10;;;6.40;;
25509;SDS011;13413;52.336;21.200;2022-08-18T14:59:08;8.80;;;6.90;;
25509;SDS011;13413;52.336;21.200;2022-08-18T15:02:28;7.20;;;6.60;;
25509;SDS011;13413;52.336;21.200;2022-08-18T15:05:48;11.30;;;8.00;;
25509;SDS011;13413;52.336;21.200;2022-08-18T15:09:07;9.10;;;6.30;;
25509;SDS011;13413;52.336;21.200;2022-08-18T15:12:27;8.60;;;7.20;;
25509;SDS011;13413;52.336;21.200;2022-08-18T15:15:48;9.80;;;6.70;;
25509;SDS011;13413;52.336;21.200;2022-08-18T15:19:09;7.40;;;6.70;;
25509;SDS011;13413;52.336;21.200;2022-08-18T15:22:28;8.80;;;6.50;;
25509;SDS011;13413;52.336;21.200;2022-08-18T15:25:50;8.00;;;7.20;;
25509;SDS011;13413;52.336;21.200;2022-08-18T15:29:10;10.70;;;7.70;;
25509;SDS011;13413;52.336;21.200;2022-08-18T15:32:29;8.80;;;7.20;;
25509;SDS011;13413;52.336;21.200;2022-08-18T15:35:52;8.60;;;7.40;;
25509;SDS011;13413;52.336;21.200;2022-08-18T15:39:12;13.30;;;6.80;;
25509;SDS011;13413;52.336;21.200;2022-08-18T15:42:32;10.70;;;7.20;;
25509;SDS011;13413;52.336;21.200;2022-08-18T15:45:51;14.50;;;7.10;;
25509;SDS011;13413;52.336;21.200;2022-08-18T15:49:12;9.60;;;7.20;;
25509;SDS011;13413;52.336;21.200;2022-08-18T15:52:33;12.90;;;7.40;;
25509;SDS011;13413;52.336;21.200;2022-08-18T15:56:02;11.40;;;7.30;;
25509;SDS011;13413;52.336;21.200;2022-08-18T15:59:23;12.90;;;7.80;;
25509;SDS011;13413;52.336;21.200;2022-08-18T16:02:46;10.20;;;7.40;;
25509;SDS011;13413;52.336;21.200;2022-08-18T16:06:10;9.80;;;7.70;;
25509;SDS011;13413;52.336;21.200;2022-08-18T16:09:32;8.90;;;7.00;;
25509;SDS011;13413;52.336;21.200;2022-08-18T16:12:52;12.60;;;8.20;;
25509;SDS011;13413;52.336;21.200;2022-08-18T16:16:12;10.90;;;7.30;;
25509;SDS011;13413;52.336;21.200;2022-08-18T16:19:33;10.80;;;7.40;;
25509;SDS011;13413;52.336;21.200;2022-08-18T16:22:54;9.00;;;7.30;;
25509;SDS011;13413;52.336;21.200;2022-08-18T16:26:16;7.80;;;6.90;;
25509;SDS011;13413;52.336;21.200;2022-08-18T16:29:37;8.80;;;7.10;;
25509;SDS011;13413;52.336;21.200;2022-08-18T16:32:59;9.50;;;7.20;;
25509;SDS011;13413;52.336;21.200;2022-08-18T16:36:21;10.00;;;6.70;;
25509;SDS011;13413;52.336;21.200;2022-08-18T16:39:40;27.90;;;8.80;;
25509;SDS011;13413;52.336;21.200;2022-08-18T16:43:01;10.10;;;6.70;;
25509;SDS011;13413;52.336;21.200;2022-08-18T16:46:23;9.50;;;8.10;;
25509;SDS011;13413;52.336;21.200;2022-08-18T16:49:44;8.70;;;7.40;;
25509;SDS011;13413;52.336;21.200;2022-08-18T16:53:04;35.90;;;10.00;;
25509;SDS011;13413;52.336;21.200;2022-08-18T16:56:24;14.80;;;7.90;;
25509;SDS011;13413;52.336;21.200;2022-08-18T16:59:44;12.00;;;7.80;;
25509;SDS011;13413;52.336;21.200;2022-08-18T17:03:06;10.50;;;8.40;;
25509;SDS011;13413;52.336;21.200;2022-08-18T17:06:26;13.00;;;8.50;;
25509;SDS011;13413;52.336;21.200;2022-08-18T17:09:47;12.20;;;9.20;;
25509;SDS011;13413;52.336;21.200;2022-08-18T17:13:06;20.60;;;10.30;;
25509;SDS011;13413;52.336;21.200;2022-08-18T17:16:27;14.60;;;8.70;;
25509;SDS011;13413;52.336;21.200;2022-08-18T17:19:48;14.70;;;9.10;;
25509;SDS011;13413;52.336;21.200;2022-08-18T17:23:10;12.70;;;9.50;;
25509;SDS011;13413;52.336;21.200;2022-08-18T17:26:35;14.60;;;9.20;;
25509;SDS011;13413;52.336;21.200;2022-08-18T17:30:04;13.70;;;10.00;;
25509;SDS011;13413;52.336;21.200;2022-08-18T17:33:28;14.10;;;10.10;;
25509;SDS011;13413;52.336;21.200;2022-08-18T17:36:50;15.80;;;10.10;;
25509;SDS011;13413;52.336;21.200;2022-08-18T17:40:12;20.40;;;10.30;;
25509;SDS011;13413;52.336;21.200;2022-08-18T17:43:36;20.30;;;9.80;;
25509;SDS011;13413;52.336;21.200;2022-08-18T17:46:57;10.60;;;9.50;;
25509;SDS011;13413;52.336;21.200;2022-08-18T17:50:21;16.90;;;10.00;;
25509;SDS011;13413;52.336;21.200;2022-08-18T17:53:45;12.10;;;9.90;;
25509;SDS011;13413;52.336;21.200;2022-08-18T17:57:07;14.10;;;11.50;;
25509;SDS011;13413;52.336;21.200;2022-08-18T18:00:31;17.00;;;10.40;;
25509;SDS011;13413;52.336;21.200;2022-08-18T18:03:51;14.90;;;10.20;;
25509;SDS011;13413;52.336;21.200;2022-08-18T18:07:19;15.80;;;10.30;;
25509;SDS011;13413;52.336;21.200;2022-08-18T18:10:41;11.50;;;9.50;;
25509;SDS011;13413;52.336;21.200;2022-08-18T18:14:20;14.00;;;9.60;;
25509;SDS011;13413;52.336;21.200;2022-08-18T18:17:42;12.10;;;10.50;;
25509;SDS011;13413;52.336;21.200;2022-08-18T18:21:03;17.30;;;10.10;;
25509;SDS011;13413;52.336;21.200;2022-08-18T18:24:29;12.10;;;10.00;;
25509;SDS011;13413;52.336;21.200;2022-08-18T18:27:50;14.60;;;10.50;;
25509;SDS011;13413;52.336;21.200;2022-08-18T18:31:17;12.80;;;10.30;;
25509;SDS011;13413;52.336;21.200;2022-08-18T18:34:43;12.70;;;11.20;;
25509;SDS011;13413;52.336;21.200;2022-08-18T18:38:24;16.00;;;10.90;;
25509;SDS011;13413;52.336;21.200;2022-08-18T18:41:46;18.80;;;10.50;;
25509;SDS011;13413;52.336;21.200;2022-08-18T18:45:19;13.30;;;10.40;;
25509;SDS011;13413;52.336;21.200;2022-08-18T18:48:49;12.90;;;10.50;;
25509;SDS011;13413;52.336;21.200;2022-08-18T18:52:19;14.10;;;10.70;;
25509;SDS011;13413;52.336;21.200;2022-08-18T18:55:47;16.30;;;10.30;;
25509;SDS011;13413;52.336;21.200;2022-08-18T18:59:16;13.70;;;10.00;;
25509;SDS011;13413;52.336;21.200;2022-08-18T19:02:48;14.50;;;10.60;;
25509;SDS011;13413;52.336;21.200;2022-08-18T19:06:22;14.00;;;10.70;;
25509;SDS011;13413;52.336;21.200;2022-08-18T19:09:47;11.30;;;10.20;;
25509;SDS011;13413;52.336;21.200;2022-08-18T19:13:19;16.00;;;12.20;;
25509;SDS011;13413;52.336;21.200;2022-08-18T19:16:45;19.40;;;15.10;;
25509;SDS011;13413;52.336;21.200;2022-08-18T19:23:32;33.10;;;26.50;;
25509;SDS011;13413;52.336;21.200;2022-08-18T19:26:56;17.70;;;15.30;;
25509;SDS011;13413;52.336;21.200;2022-08-18T19:30:20;16.20;;;12.70;;
25509;SDS011;13413;52.336;21.200;2022-08-18T19:33:41;14.30;;;12.40;;
25509;SDS011;13413;52.336;21.200;2022-08-18T19:37:07;67.40;;;18.10;;
25509;SDS011;13413;52.336;21.200;2022-08-18T19:40:40;18.10;;;12.10;;
25509;SDS011;13413;52.336;21.200;2022-08-18T19:44:07;13.30;;;11.80;;
25509;SDS011;13413;52.336;21.200;2022-08-18T19:47:34;15.10;;;11.80;;
25509;SDS011;13413;52.336;21.200;2022-08-18T19:54:29;15.40;;;12.10;;
25509;SDS011;13413;52.336;21.200;2022-08-18T19:58:04;15.00;;;12.10;;
25509;SDS011;13413;52.336;21.200;2022-08-18T20:01:46;15.00;;;12.90;;
25509;SDS011;13413;52.336;21.200;2022-08-18T20:05:18;20.80;;;13.80;;
25509;SDS011;13413;52.336;21.200;2022-08-18T20:08:56;18.70;;;15.40;;
25509;SDS011;13413;52.336;21.200;2022-08-18T20:12:37;20.80;;;14.90;;
25509;SDS011;13413;52.336;21.200;2022-08-18T20:16:13;21.20;;;14.20;;
25509;SDS011;13413;52.336;21.200;2022-08-18T20:19:45;14.40;;;12.90;;
25509;SDS011;13413;52.336;21.200;2022-08-18T20:23:31;16.80;;;12.50;;
25509;SDS011;13413;52.336;21.200;2022-08-18T20:26:54;22.60;;;13.00;;
25509;SDS011;13413;52.336;21.200;2022-08-18T20:30:30;22.60;;;14.10;;
25509;SDS011;13413;52.336;21.200;2022-08-18T20:34:07;20.50;;;14.80;;
25509;SDS011;13413;52.336;21.200;2022-08-18T20:37:31;27.50;;;18.60;;
25509;SDS011;13413;52.336;21.200;2022-08-18T20:40:52;28.00;;;18.80;;
25509;SDS011;13413;52.336;21.200;2022-08-18T20:48:19;19.10;;;16.80;;
25509;SDS011;13413;52.336;21.200;2022-08-18T20:52:03;19.80;;;15.60;;
25509;SDS011;13413;52.336;21.200;2022-08-18T20:59:12;59.40;;;49.90;;
25509;SDS011;13413;52.336;21.200;2022-08-18T21:02:34;41.40;;;37.00;;
25509;SDS011;13413;52.336;21.200;2022-08-18T21:05:56;26.30;;;22.70;;
25509;SDS011;13413;52.336;21.200;2022-08-18T21:09:16;22.30;;;19.50;;
25509;SDS011;13413;52.336;21.200;2022-08-18T21:12:37;18.20;;;16.20;;
25509;SDS011;13413;52.336;21.200;2022-08-18T21:16:03;16.40;;;14.80;;
25509;SDS011;13413;52.336;21.200;2022-08-18T21:19:25;18.40;;;14.60;;
25509;SDS011;13413;52.336;21.200;2022-08-18T21:22:45;16.70;;;13.40;;